sensor_id;sensor_type;location;lat;lon;timestamp;temperature;humidity
14142;DHT22;7151;52.246;4.820;2024-01-11T00:01:03;3.30;58.50
14142;DHT22;7151;52.246;4.820;2024-01-11T00:03:29;3.20;58.40
14142;DHT22;7151;52.246;4.820;2024-01-11T00:05:55;3.20;58.50
14142;DHT22;7151;52.246;4.820;2024-01-11T00:08:23;3.20;58.50
14142;DHT22;7151;52.246;4.820;2024-01-11T00:10:49;3.20;58.50
14142;DHT22;7151;52.246;4.820;2024-01-11T00:13:15;3.20;58.50
14142;DHT22;7151;52.246;4.820;2024-01-11T00:15:40;3.20;58.50
14142;DHT22;7151;52.246;4.820;2024-01-11T00:18:06;3.20;58.60
14142;DHT22;7151;52.246;4.820;2024-01-11T00:20:32;3.20;58.60
14142;DHT22;7151;52.246;4.820;2024-01-11T00:22:58;3.10;58.60
14142;DHT22;7151;52.246;4.820;2024-01-11T00:25:23;3.10;58.70
14142;DHT22;7151;52.246;4.820;2024-01-11T00:27:49;3.10;58.70
14142;DHT22;7151;52.246;4.820;2024-01-11T00:30:14;3.10;58.70
14142;DHT22;7151;52.246;4.820;2024-01-11T00:32:40;3.10;58.70
14142;DHT22;7151;52.246;4.820;2024-01-11T00:35:06;3.10;58.80
14142;DHT22;7151;52.246;4.820;2024-01-11T00:37:31;3.10;58.70
14142;DHT22;7151;52.246;4.820;2024-01-11T00:39:57;3.10;58.80
14142;DHT22;7151;52.246;4.820;2024-01-11T00:42:22;3.10;58.80
14142;DHT22;7151;52.246;4.820;2024-01-11T00:44:48;3.10;58.80
14142;DHT22;7151;52.246;4.820;2024-01-11T00:47:15;3.00;58.80
14142;DHT22;7151;52.246;4.820;2024-01-11T00:49:43;3.00;58.80
14142;DHT22;7151;52.246;4.820;2024-01-11T00:52:09;3.00;58.80
14142;DHT22;7151;52.246;4.820;2024-01-11T00:54:35;3.00;58.90
14142;DHT22;7151;52.246;4.820;2024-01-11T00:57:01;3.00;58.90
14142;DHT22;7151;52.246;4.820;2024-01-11T00:59:27;2.90;58.90
14142;DHT22;7151;52.246;4.820;2024-01-11T01:01:52;2.90;59.00
14142;DHT22;7151;52.246;4.820;2024-01-11T01:04:18;2.90;59.00
14142;DHT22;7151;52.246;4.820;2024-01-11T01:06:44;2.90;59.00
14142;DHT22;7151;52.246;4.820;2024-01-11T01:09:10;2.90;59.10
14142;DHT22;7151;52.246;4.820;2024-01-11T01:11:36;2.90;59.10
14142;DHT22;7151;52.246;4.820;2024-01-11T01:14:01;2.90;59.20
14142;DHT22;7151;52.246;4.820;2024-01-11T01:16:27;2.80;59.20
14142;DHT22;7151;52.246;4.820;2024-01-11T01:18:52;2.80;59.20
14142;DHT22;7151;52.246;4.820;2024-01-11T01:21:18;2.90;59.40
14142;DHT22;7151;52.246;4.820;2024-01-11T01:23:43;2.80;59.30
14142;DHT22;7151;52.246;4.820;2024-01-11T01:26:09;2.80;59.40
14142;DHT22;7151;52.246;4.820;2024-01-11T01:28:34;2.80;59.40
14142;DHT22;7151;52.246;4.820;2024-01-11T01:31:01;2.80;59.50
14142;DHT22;7151;52.246;4.820;2024-01-11T01:33:27;2.80;59.50
14142;DHT22;7151;52.246;4.820;2024-01-11T01:35:52;2.80;59.60
14142;DHT22;7151;52.246;4.820;2024-01-11T01:38:18;2.80;60.10
14142;DHT22;7151;52.246;4.820;2024-01-11T01:40:44;2.80;59.60
14142;DHT22;7151;52.246;4.820;2024-01-11T01:43:09;2.80;59.60
14142;DHT22;7151;52.246;4.820;2024-01-11T01:45:35;2.80;59.60
14142;DHT22;7151;52.246;4.820;2024-01-11T01:48:01;2.80;59.70
14142;DHT22;7151;52.246;4.820;2024-01-11T01:50:27;2.80;59.70
14142;DHT22;7151;52.246;4.820;2024-01-11T01:52:55;2.80;59.80
14142;DHT22;7151;52.246;4.820;2024-01-11T01:55:22;2.80;59.80
14142;DHT22;7151;52.246;4.820;2024-01-11T01:57:49;2.80;59.80
14142;DHT22;7151;52.246;4.820;2024-01-11T02:00:15;2.80;59.80
14142;DHT22;7151;52.246;4.820;2024-01-11T02:02:44;2.80;59.80
14142;DHT22;7151;52.246;4.820;2024-01-11T02:05:14;2.90;60.60
14142;DHT22;7151;52.246;4.820;2024-01-11T02:07:42;2.80;59.90
14142;DHT22;7151;52.246;4.820;2024-01-11T02:10:08;2.80;59.90
14142;DHT22;7151;52.246;4.820;2024-01-11T02:12:37;2.80;59.90
14142;DHT22;7151;52.246;4.820;2024-01-11T02:15:03;2.80;60.50
14142;DHT22;7151;52.246;4.820;2024-01-11T02:17:30;2.80;59.90
14142;DHT22;7151;52.246;4.820;2024-01-11T02:19:56;2.80;60.00
14142;DHT22;7151;52.246;4.820;2024-01-11T02:22:27;2.70;59.90
14142;DHT22;7151;52.246;4.820;2024-01-11T02:24:54;2.70;60.00
14142;DHT22;7151;52.246;4.820;2024-01-11T02:27:19;2.70;60.00
14142;DHT22;7151;52.246;4.820;2024-01-11T02:29:45;2.70;60.00
14142;DHT22;7151;52.246;4.820;2024-01-11T02:32:11;2.70;60.20
14142;DHT22;7151;52.246;4.820;2024-01-11T02:34:37;2.70;60.20
14142;DHT22;7151;52.246;4.820;2024-01-11T02:37:04;2.70;60.30
14142;DHT22;7151;52.246;4.820;2024-01-11T02:39:29;2.70;60.40
14142;DHT22;7151;52.246;4.820;2024-01-11T02:41:56;2.70;60.40
14142;DHT22;7151;52.246;4.820;2024-01-11T02:44:23;2.70;60.60
14142;DHT22;7151;52.246;4.820;2024-01-11T02:46:49;2.70;60.50
14142;DHT22;7151;52.246;4.820;2024-01-11T02:49:15;2.70;60.60
14142;DHT22;7151;52.246;4.820;2024-01-11T02:51:40;2.70;60.60
14142;DHT22;7151;52.246;4.820;2024-01-11T02:54:06;2.70;60.70
14142;DHT22;7151;52.246;4.820;2024-01-11T02:56:31;2.60;60.60
14142;DHT22;7151;52.246;4.820;2024-01-11T02:58:57;2.60;60.70
14142;DHT22;7151;52.246;4.820;2024-01-11T03:01:23;2.60;60.70
14142;DHT22;7151;52.246;4.820;2024-01-11T03:03:50;2.60;60.70
14142;DHT22;7151;52.246;4.820;2024-01-11T03:06:16;2.60;60.80
14142;DHT22;7151;52.246;4.820;2024-01-11T03:08:49;2.60;60.80
14142;DHT22;7151;52.246;4.820;2024-01-11T03:11:15;2.50;60.70
14142;DHT22;7151;52.246;4.820;2024-01-11T03:13:41;2.50;60.80
14142;DHT22;7151;52.246;4.820;2024-01-11T03:16:07;2.50;60.80
14142;DHT22;7151;52.246;4.820;2024-01-11T03:18:33;2.50;60.90
14142;DHT22;7151;52.246;4.820;2024-01-11T03:20:58;2.40;60.90
14142;DHT22;7151;52.246;4.820;2024-01-11T03:23:24;2.40;60.90
14142;DHT22;7151;52.246;4.820;2024-01-11T03:25:50;2.40;61.00
14142;DHT22;7151;52.246;4.820;2024-01-11T03:28:15;2.30;60.90
14142;DHT22;7151;52.246;4.820;2024-01-11T03:30:41;2.30;61.00
14142;DHT22;7151;52.246;4.820;2024-01-11T03:33:06;2.30;61.10
14142;DHT22;7151;52.246;4.820;2024-01-11T03:35:32;2.30;61.10
14142;DHT22;7151;52.246;4.820;2024-01-11T03:37:57;2.20;61.10
14142;DHT22;7151;52.246;4.820;2024-01-11T03:40:23;2.20;61.20
14142;DHT22;7151;52.246;4.820;2024-01-11T03:42:49;2.20;61.20
14142;DHT22;7151;52.246;4.820;2024-01-11T03:45:17;2.20;61.30
14142;DHT22;7151;52.246;4.820;2024-01-11T03:47:44;2.20;61.40
14142;DHT22;7151;52.246;4.820;2024-01-11T03:50:10;2.10;61.30
14142;DHT22;7151;52.246;4.820;2024-01-11T03:52:36;2.10;61.40
14142;DHT22;7151;52.246;4.820;2024-01-11T03:55:01;2.10;61.40
14142;DHT22;7151;52.246;4.820;2024-01-11T03:57:27;2.10;61.50
14142;DHT22;7151;52.246;4.820;2024-01-11T03:59:52;2.10;61.50
14142;DHT22;7151;52.246;4.820;2024-01-11T04:02:19;2.00;61.60
14142;DHT22;7151;52.246;4.820;2024-01-11T04:04:44;2.00;61.60
14142;DHT22;7151;52.246;4.820;2024-01-11T04:07:10;2.00;61.60
14142;DHT22;7151;52.246;4.820;2024-01-11T04:09:37;1.90;61.60
14142;DHT22;7151;52.246;4.820;2024-01-11T04:12:04;2.00;61.70
14142;DHT22;7151;52.246;4.820;2024-01-11T04:14:30;1.90;61.70
14142;DHT22;7151;52.246;4.820;2024-01-11T04:16:56;1.90;61.80
14142;DHT22;7151;52.246;4.820;2024-01-11T04:19:22;1.90;61.80
14142;DHT22;7151;52.246;4.820;2024-01-11T04:21:47;1.90;61.90
14142;DHT22;7151;52.246;4.820;2024-01-11T04:24:13;1.90;61.90
14142;DHT22;7151;52.246;4.820;2024-01-11T04:26:38;1.90;61.90
14142;DHT22;7151;52.246;4.820;2024-01-11T04:29:04;1.90;62.00
14142;DHT22;7151;52.246;4.820;2024-01-11T04:31:30;1.90;62.10
14142;DHT22;7151;52.246;4.820;2024-01-11T04:33:56;1.80;62.00
14142;DHT22;7151;52.246;4.820;2024-01-11T04:36:21;1.80;62.10
14142;DHT22;7151;52.246;4.820;2024-01-11T04:38:47;1.80;62.10
14142;DHT22;7151;52.246;4.820;2024-01-11T04:41:14;1.80;62.20
14142;DHT22;7151;52.246;4.820;2024-01-11T04:43:41;1.80;63.00
14142;DHT22;7151;52.246;4.820;2024-01-11T04:46:14;1.80;62.20
14142;DHT22;7151;52.246;4.820;2024-01-11T04:48:43;1.60;62.20
14142;DHT22;7151;52.246;4.820;2024-01-11T04:51:09;1.80;63.10
14142;DHT22;7151;52.246;4.820;2024-01-11T04:53:42;1.70;62.30
14142;DHT22;7151;52.246;4.820;2024-01-11T04:56:08;1.70;62.40
14142;DHT22;7151;52.246;4.820;2024-01-11T04:58:39;1.70;62.40
14142;DHT22;7151;52.246;4.820;2024-01-11T05:01:15;1.70;62.50
14142;DHT22;7151;52.246;4.820;2024-01-11T05:03:42;1.70;62.60
14142;DHT22;7151;52.246;4.820;2024-01-11T05:06:08;1.70;62.60
14142;DHT22;7151;52.246;4.820;2024-01-11T05:08:33;1.60;62.60
14142;DHT22;7151;52.246;4.820;2024-01-11T05:10:59;1.60;62.70
14142;DHT22;7151;52.246;4.820;2024-01-11T05:13:25;1.70;62.80
14142;DHT22;7151;52.246;4.820;2024-01-11T05:15:51;1.60;62.80
14142;DHT22;7151;52.246;4.820;2024-01-11T05:18:16;1.60;62.80
14142;DHT22;7151;52.246;4.820;2024-01-11T05:20:42;1.60;62.90
14142;DHT22;7151;52.246;4.820;2024-01-11T05:23:07;1.60;63.00
14142;DHT22;7151;52.246;4.820;2024-01-11T05:25:33;1.70;63.10
14142;DHT22;7151;52.246;4.820;2024-01-11T05:28:03;1.60;63.00
14142;DHT22;7151;52.246;4.820;2024-01-11T05:30:32;1.60;63.10
14142;DHT22;7151;52.246;4.820;2024-01-11T05:32:58;1.60;63.10
14142;DHT22;7151;52.246;4.820;2024-01-11T05:35:25;1.60;63.20
14142;DHT22;7151;52.246;4.820;2024-01-11T05:37:53;1.60;63.30
14142;DHT22;7151;52.246;4.820;2024-01-11T05:40:20;1.60;63.30
14142;DHT22;7151;52.246;4.820;2024-01-11T05:42:45;1.60;63.40
14142;DHT22;7151;52.246;4.820;2024-01-11T05:45:11;1.60;63.40
14142;DHT22;7151;52.246;4.820;2024-01-11T05:47:37;1.60;63.40
14142;DHT22;7151;52.246;4.820;2024-01-11T05:50:02;1.60;63.50
14142;DHT22;7151;52.246;4.820;2024-01-11T05:52:28;1.60;63.50
14142;DHT22;7151;52.246;4.820;2024-01-11T05:54:53;1.60;63.50
14142;DHT22;7151;52.246;4.820;2024-01-11T05:57:19;1.60;63.60
14142;DHT22;7151;52.246;4.820;2024-01-11T05:59:45;1.60;63.60
14142;DHT22;7151;52.246;4.820;2024-01-11T06:02:11;1.60;63.60
14142;DHT22;7151;52.246;4.820;2024-01-11T06:04:37;1.60;63.60
14142;DHT22;7151;52.246;4.820;2024-01-11T06:07:03;1.60;63.60
14142;DHT22;7151;52.246;4.820;2024-01-11T06:09:28;1.60;63.60
14142;DHT22;7151;52.246;4.820;2024-01-11T06:11:54;1.50;63.60
14142;DHT22;7151;52.246;4.820;2024-01-11T06:14:20;1.50;63.50
14142;DHT22;7151;52.246;4.820;2024-01-11T06:16:45;1.50;63.60
14142;DHT22;7151;52.246;4.820;2024-01-11T06:19:11;1.50;63.70
14142;DHT22;7151;52.246;4.820;2024-01-11T06:21:36;1.50;63.70
14142;DHT22;7151;52.246;4.820;2024-01-11T06:24:02;1.50;63.70
14142;DHT22;7151;52.246;4.820;2024-01-11T06:26:29;1.50;63.80
14142;DHT22;7151;52.246;4.820;2024-01-11T06:28:54;1.40;63.70
14142;DHT22;7151;52.246;4.820;2024-01-11T06:31:20;1.40;63.80
14142;DHT22;7151;52.246;4.820;2024-01-11T06:33:46;1.40;63.80
14142;DHT22;7151;52.246;4.820;2024-01-11T06:36:11;1.40;63.80
14142;DHT22;7151;52.246;4.820;2024-01-11T06:38:37;1.40;63.80
14142;DHT22;7151;52.246;4.820;2024-01-11T06:41:03;1.40;63.80
14142;DHT22;7151;52.246;4.820;2024-01-11T06:43:28;1.40;63.90
14142;DHT22;7151;52.246;4.820;2024-01-11T06:45:54;1.40;64.00
14142;DHT22;7151;52.246;4.820;2024-01-11T06:48:19;1.40;64.00
14142;DHT22;7151;52.246;4.820;2024-01-11T06:50:45;1.50;64.10
14142;DHT22;7151;52.246;4.820;2024-01-11T06:53:11;1.30;64.00
14142;DHT22;7151;52.246;4.820;2024-01-11T06:55:37;1.30;64.10
14142;DHT22;7151;52.246;4.820;2024-01-11T06:58:02;1.30;64.10
14142;DHT22;7151;52.246;4.820;2024-01-11T07:00:28;1.30;64.10
14142;DHT22;7151;52.246;4.820;2024-01-11T07:02:54;1.30;64.20
14142;DHT22;7151;52.246;4.820;2024-01-11T07:05:20;1.30;64.20
14142;DHT22;7151;52.246;4.820;2024-01-11T07:07:46;1.30;64.30
14142;DHT22;7151;52.246;4.820;2024-01-11T07:10:12;1.30;64.30
14142;DHT22;7151;52.246;4.820;2024-01-11T07:12:38;1.30;64.30
14142;DHT22;7151;52.246;4.820;2024-01-11T07:15:06;1.30;64.40
14142;DHT22;7151;52.246;4.820;2024-01-11T07:17:33;1.30;64.40
14142;DHT22;7151;52.246;4.820;2024-01-11T07:19:59;1.30;64.40
14142;DHT22;7151;52.246;4.820;2024-01-11T07:22:24;1.30;64.50
14142;DHT22;7151;52.246;4.820;2024-01-11T07:24:50;1.30;64.60
14142;DHT22;7151;52.246;4.820;2024-01-11T07:27:15;1.30;64.60
14142;DHT22;7151;52.246;4.820;2024-01-11T07:29:41;1.30;64.70
14142;DHT22;7151;52.246;4.820;2024-01-11T07:32:06;1.30;64.70
14142;DHT22;7151;52.246;4.820;2024-01-11T07:34:32;1.30;64.70
14142;DHT22;7151;52.246;4.820;2024-01-11T07:36:58;1.30;65.40
14142;DHT22;7151;52.246;4.820;2024-01-11T07:39:23;1.30;64.80
14142;DHT22;7151;52.246;4.820;2024-01-11T07:41:50;1.40;64.80
14142;DHT22;7151;52.246;4.820;2024-01-11T07:44:15;1.30;64.70
14142;DHT22;7151;52.246;4.820;2024-01-11T07:46:41;1.30;64.80
14142;DHT22;7151;52.246;4.820;2024-01-11T07:49:06;1.30;64.80
14142;DHT22;7151;52.246;4.820;2024-01-11T07:51:33;1.30;64.80
14142;DHT22;7151;52.246;4.820;2024-01-11T07:54:00;1.30;64.90
14142;DHT22;7151;52.246;4.820;2024-01-11T07:56:26;1.30;64.90
14142;DHT22;7151;52.246;4.820;2024-01-11T07:58:51;1.30;65.00
14142;DHT22;7151;52.246;4.820;2024-01-11T08:01:17;1.30;65.00
14142;DHT22;7151;52.246;4.820;2024-01-11T08:03:42;1.30;65.10
14142;DHT22;7151;52.246;4.820;2024-01-11T08:06:10;1.30;65.20
14142;DHT22;7151;52.246;4.820;2024-01-11T08:08:37;1.30;65.20
14142;DHT22;7151;52.246;4.820;2024-01-11T08:11:05;1.30;65.50
14142;DHT22;7151;52.246;4.820;2024-01-11T08:13:32;1.30;65.30
14142;DHT22;7151;52.246;4.820;2024-01-11T08:15:57;1.30;65.30
14142;DHT22;7151;52.246;4.820;2024-01-11T08:18:23;1.30;65.40
14142;DHT22;7151;52.246;4.820;2024-01-11T08:20:49;1.40;65.60
14142;DHT22;7151;52.246;4.820;2024-01-11T08:23:15;1.40;65.70
14142;DHT22;7151;52.246;4.820;2024-01-11T08:25:43;1.40;65.80
14142;DHT22;7151;52.246;4.820;2024-01-11T08:28:09;1.40;65.90
14142;DHT22;7151;52.246;4.820;2024-01-11T08:30:34;1.40;65.90
14142;DHT22;7151;52.246;4.820;2024-01-11T08:33:00;1.40;65.90
14142;DHT22;7151;52.246;4.820;2024-01-11T08:35:25;1.50;66.10
14142;DHT22;7151;52.246;4.820;2024-01-11T08:37:51;1.50;66.10
14142;DHT22;7151;52.246;4.820;2024-01-11T08:40:17;1.50;66.20
14142;DHT22;7151;52.246;4.820;2024-01-11T08:42:42;1.50;66.20
14142;DHT22;7151;52.246;4.820;2024-01-11T08:45:08;1.50;66.30
14142;DHT22;7151;52.246;4.820;2024-01-11T08:47:35;1.60;66.50
14142;DHT22;7151;52.246;4.820;2024-01-11T08:50:01;1.60;66.60
14142;DHT22;7151;52.246;4.820;2024-01-11T08:52:31;1.60;66.60
14142;DHT22;7151;52.246;4.820;2024-01-11T08:54:57;1.60;66.70
14142;DHT22;7151;52.246;4.820;2024-01-11T08:57:23;1.60;66.80
14142;DHT22;7151;52.246;4.820;2024-01-11T08:59:48;1.70;66.90
14142;DHT22;7151;52.246;4.820;2024-01-11T09:02:14;1.70;67.00
14142;DHT22;7151;52.246;4.820;2024-01-11T09:04:39;1.70;67.10
14142;DHT22;7151;52.246;4.820;2024-01-11T09:07:05;1.80;67.20
14142;DHT22;7151;52.246;4.820;2024-01-11T09:09:30;1.80;67.30
14142;DHT22;7151;52.246;4.820;2024-01-11T09:11:56;1.80;67.40
14142;DHT22;7151;52.246;4.820;2024-01-11T09:14:22;1.90;67.50
14142;DHT22;7151;52.246;4.820;2024-01-11T09:16:47;1.90;67.60
14142;DHT22;7151;52.246;4.820;2024-01-11T09:19:14;1.90;67.70
14142;DHT22;7151;52.246;4.820;2024-01-11T09:21:39;2.00;67.80
14142;DHT22;7151;52.246;4.820;2024-01-11T09:24:06;2.00;67.90
14142;DHT22;7151;52.246;4.820;2024-01-11T09:26:32;2.10;68.10
14142;DHT22;7151;52.246;4.820;2024-01-11T09:28:57;2.10;68.10
14142;DHT22;7151;52.246;4.820;2024-01-11T09:31:23;2.10;68.20
14142;DHT22;7151;52.246;4.820;2024-01-11T09:33:48;2.20;68.40
14142;DHT22;7151;52.246;4.820;2024-01-11T09:36:15;2.20;68.50
14142;DHT22;7151;52.246;4.820;2024-01-11T09:38:40;2.20;68.60
14142;DHT22;7151;52.246;4.820;2024-01-11T09:41:07;2.30;68.70
14142;DHT22;7151;52.246;4.820;2024-01-11T09:43:34;2.30;68.80
14142;DHT22;7151;52.246;4.820;2024-01-11T09:46:05;2.40;69.00
14142;DHT22;7151;52.246;4.820;2024-01-11T09:48:34;2.40;69.10
14142;DHT22;7151;52.246;4.820;2024-01-11T09:51:01;2.40;69.10
14142;DHT22;7151;52.246;4.820;2024-01-11T09:53:29;2.50;69.20
14142;DHT22;7151;52.246;4.820;2024-01-11T09:55:58;2.50;69.30
14142;DHT22;7151;52.246;4.820;2024-01-11T09:58:24;2.50;69.40
14142;DHT22;7151;52.246;4.820;2024-01-11T10:00:54;2.60;69.50
14142;DHT22;7151;52.246;4.820;2024-01-11T10:03:20;2.60;69.60
14142;DHT22;7151;52.246;4.820;2024-01-11T10:05:49;2.70;69.80
14142;DHT22;7151;52.246;4.820;2024-01-11T10:08:20;2.70;69.90
14142;DHT22;7151;52.246;4.820;2024-01-11T10:10:47;2.70;69.90
14142;DHT22;7151;52.246;4.820;2024-01-11T10:13:13;2.80;70.10
14142;DHT22;7151;52.246;4.820;2024-01-11T10:15:39;2.80;70.20
14142;DHT22;7151;52.246;4.820;2024-01-11T10:18:04;2.80;70.30
14142;DHT22;7151;52.246;4.820;2024-01-11T10:20:30;2.90;70.40
14142;DHT22;7151;52.246;4.820;2024-01-11T10:22:57;2.90;70.60
14142;DHT22;7151;52.246;4.820;2024-01-11T10:25:23;3.00;70.70
14142;DHT22;7151;52.246;4.820;2024-01-11T10:27:49;3.00;71.00
14142;DHT22;7151;52.246;4.820;2024-01-11T10:30:16;3.00;70.90
14142;DHT22;7151;52.246;4.820;2024-01-11T10:32:46;3.10;71.10
14142;DHT22;7151;52.246;4.820;2024-01-11T10:35:12;3.10;71.20
14142;DHT22;7151;52.246;4.820;2024-01-11T10:37:38;3.20;71.30
14142;DHT22;7151;52.246;4.820;2024-01-11T10:40:08;3.20;71.40
14142;DHT22;7151;52.246;4.820;2024-01-11T10:42:44;3.20;71.50
14142;DHT22;7151;52.246;4.820;2024-01-11T10:45:15;3.30;71.60
14142;DHT22;7151;52.246;4.820;2024-01-11T10:47:54;3.30;71.70
14142;DHT22;7151;52.246;4.820;2024-01-11T10:50:23;3.30;71.80
14142;DHT22;7151;52.246;4.820;2024-01-11T10:53:12;3.40;71.80
14142;DHT22;7151;52.246;4.820;2024-01-11T10:55:41;3.40;72.00
14142;DHT22;7151;52.246;4.820;2024-01-11T10:58:07;3.40;71.90
14142;DHT22;7151;52.246;4.820;2024-01-11T11:00:36;3.50;72.10
14142;DHT22;7151;52.246;4.820;2024-01-11T11:03:02;3.50;72.10
14142;DHT22;7151;52.246;4.820;2024-01-11T11:05:29;3.50;72.20
14142;DHT22;7151;52.246;4.820;2024-01-11T11:07:55;3.50;72.30
14142;DHT22;7151;52.246;4.820;2024-01-11T11:10:22;3.60;72.50
14142;DHT22;7151;52.246;4.820;2024-01-11T11:12:48;3.60;72.50
14142;DHT22;7151;52.246;4.820;2024-01-11T11:15:14;3.60;72.60
14142;DHT22;7151;52.246;4.820;2024-01-11T11:17:43;3.60;72.60
14142;DHT22;7151;52.246;4.820;2024-01-11T11:20:10;3.70;72.80
14142;DHT22;7151;52.246;4.820;2024-01-11T11:22:42;3.70;72.80
14142;DHT22;7151;52.246;4.820;2024-01-11T11:25:09;3.70;72.90
14142;DHT22;7151;52.246;4.820;2024-01-11T11:27:36;3.80;73.00
14142;DHT22;7151;52.246;4.820;2024-01-11T11:30:03;3.80;73.10
14142;DHT22;7151;52.246;4.820;2024-01-11T11:32:43;3.80;73.20
14142;DHT22;7151;52.246;4.820;2024-01-11T11:35:09;3.80;73.30
14142;DHT22;7151;52.246;4.820;2024-01-11T11:37:38;3.90;73.30
14142;DHT22;7151;52.246;4.820;2024-01-11T11:40:13;3.90;73.40
14142;DHT22;7151;52.246;4.820;2024-01-11T11:42:40;3.90;73.50
14142;DHT22;7151;52.246;4.820;2024-01-11T11:45:07;4.00;73.50
14142;DHT22;7151;52.246;4.820;2024-01-11T11:47:37;4.00;73.70
14142;DHT22;7151;52.246;4.820;2024-01-11T11:50:08;4.00;73.70
14142;DHT22;7151;52.246;4.820;2024-01-11T11:52:39;4.10;73.90
14142;DHT22;7151;52.246;4.820;2024-01-11T11:55:08;4.10;73.90
14142;DHT22;7151;52.246;4.820;2024-01-11T11:57:35;4.10;74.00
14142;DHT22;7151;52.246;4.820;2024-01-11T12:00:01;4.10;74.10
14142;DHT22;7151;52.246;4.820;2024-01-11T12:02:32;4.20;74.20
14142;DHT22;7151;52.246;4.820;2024-01-11T12:04:58;4.20;74.30
14142;DHT22;7151;52.246;4.820;2024-01-11T12:07:24;4.30;74.40
14142;DHT22;7151;52.246;4.820;2024-01-11T12:09:51;4.30;74.50
14142;DHT22;7151;52.246;4.820;2024-01-11T12:12:17;4.30;74.60
14142;DHT22;7151;52.246;4.820;2024-01-11T12:14:46;4.30;74.60
14142;DHT22;7151;52.246;4.820;2024-01-11T12:17:12;4.40;74.70
14142;DHT22;7151;52.246;4.820;2024-01-11T12:19:38;4.40;74.80
14142;DHT22;7151;52.246;4.820;2024-01-11T12:22:04;4.50;75.00
14142;DHT22;7151;52.246;4.820;2024-01-11T12:24:30;4.40;75.00
14142;DHT22;7151;52.246;4.820;2024-01-11T12:26:56;4.50;75.10
14142;DHT22;7151;52.246;4.820;2024-01-11T12:29:23;4.50;75.10
14142;DHT22;7151;52.246;4.820;2024-01-11T12:31:51;4.60;75.30
14142;DHT22;7151;52.246;4.820;2024-01-11T12:34:17;4.60;75.30
14142;DHT22;7151;52.246;4.820;2024-01-11T12:36:43;4.60;75.40
14142;DHT22;7151;52.246;4.820;2024-01-11T12:39:10;4.70;75.50
14142;DHT22;7151;52.246;4.820;2024-01-11T12:41:39;4.70;75.50
14142;DHT22;7151;52.246;4.820;2024-01-11T12:44:04;4.70;75.60
14142;DHT22;7151;52.246;4.820;2024-01-11T12:46:30;4.70;75.60
14142;DHT22;7151;52.246;4.820;2024-01-11T12:48:56;4.70;75.60
14142;DHT22;7151;52.246;4.820;2024-01-11T12:51:21;4.90;75.80
14142;DHT22;7151;52.246;4.820;2024-01-11T12:53:48;4.80;75.80
14142;DHT22;7151;52.246;4.820;2024-01-11T12:56:15;4.80;75.80
14142;DHT22;7151;52.246;4.820;2024-01-11T12:58:41;4.80;75.80
14142;DHT22;7151;52.246;4.820;2024-01-11T13:01:07;4.90;75.90
14142;DHT22;7151;52.246;4.820;2024-01-11T13:03:38;4.90;76.00
14142;DHT22;7151;52.246;4.820;2024-01-11T13:06:04;4.90;76.10
14142;DHT22;7151;52.246;4.820;2024-01-11T13:08:34;4.90;76.10
14142;DHT22;7151;52.246;4.820;2024-01-11T13:11:02;4.90;76.10
14142;DHT22;7151;52.246;4.820;2024-01-11T13:13:33;5.00;76.20
14142;DHT22;7151;52.246;4.820;2024-01-11T13:15:59;4.90;76.20
14142;DHT22;7151;52.246;4.820;2024-01-11T13:18:25;5.00;76.30
14142;DHT22;7151;52.246;4.820;2024-01-11T13:20:50;5.00;76.40
14142;DHT22;7151;52.246;4.820;2024-01-11T13:23:17;5.00;76.40
14142;DHT22;7151;52.246;4.820;2024-01-11T13:25:47;5.00;76.40
14142;DHT22;7151;52.246;4.820;2024-01-11T13:28:12;5.00;76.50
14142;DHT22;7151;52.246;4.820;2024-01-11T13:30:42;5.00;76.50
14142;DHT22;7151;52.246;4.820;2024-01-11T13:33:09;5.10;76.70
14142;DHT22;7151;52.246;4.820;2024-01-11T13:35:36;5.10;76.70
14142;DHT22;7151;52.246;4.820;2024-01-11T13:38:03;5.10;76.70
14142;DHT22;7151;52.246;4.820;2024-01-11T13:40:32;5.10;76.70
14142;DHT22;7151;52.246;4.820;2024-01-11T13:42:58;5.10;76.80
14142;DHT22;7151;52.246;4.820;2024-01-11T13:45:25;5.10;76.80
14142;DHT22;7151;52.246;4.820;2024-01-11T13:47:51;5.10;76.80
14142;DHT22;7151;52.246;4.820;2024-01-11T13:50:19;5.10;76.80
14142;DHT22;7151;52.246;4.820;2024-01-11T13:52:45;5.10;76.80
14142;DHT22;7151;52.246;4.820;2024-01-11T13:55:11;5.20;77.00
14142;DHT22;7151;52.246;4.820;2024-01-11T13:57:37;5.20;77.00
14142;DHT22;7151;52.246;4.820;2024-01-11T14:00:04;5.20;77.00
14142;DHT22;7151;52.246;4.820;2024-01-11T14:02:31;5.20;77.10
14142;DHT22;7151;52.246;4.820;2024-01-11T14:04:57;5.20;77.10
14142;DHT22;7151;52.246;4.820;2024-01-11T14:07:23;5.20;77.10
14142;DHT22;7151;52.246;4.820;2024-01-11T14:09:49;5.20;77.20
14142;DHT22;7151;52.246;4.820;2024-01-11T14:12:15;5.20;77.20
14142;DHT22;7151;52.246;4.820;2024-01-11T14:14:41;5.20;77.20
14142;DHT22;7151;52.246;4.820;2024-01-11T14:17:08;5.30;77.30
14142;DHT22;7151;52.246;4.820;2024-01-11T14:19:33;5.30;77.40
14142;DHT22;7151;52.246;4.820;2024-01-11T14:21:59;5.30;77.50
14142;DHT22;7151;52.246;4.820;2024-01-11T14:24:24;5.30;77.40
14142;DHT22;7151;52.246;4.820;2024-01-11T14:26:51;5.30;77.50
14142;DHT22;7151;52.246;4.820;2024-01-11T14:29:17;5.30;77.50
14142;DHT22;7151;52.246;4.820;2024-01-11T14:31:42;5.30;77.50
14142;DHT22;7151;52.246;4.820;2024-01-11T14:34:09;5.30;77.60
14142;DHT22;7151;52.246;4.820;2024-01-11T14:36:36;5.30;77.60
14142;DHT22;7151;52.246;4.820;2024-01-11T14:39:02;5.30;77.60
14142;DHT22;7151;52.246;4.820;2024-01-11T14:41:32;5.40;77.80
14142;DHT22;7151;52.246;4.820;2024-01-11T14:43:59;5.30;77.70
14142;DHT22;7151;52.246;4.820;2024-01-11T14:46:26;5.40;77.80
14142;DHT22;7151;52.246;4.820;2024-01-11T14:48:51;5.40;77.80
14142;DHT22;7151;52.246;4.820;2024-01-11T14:51:17;5.40;77.90
14142;DHT22;7151;52.246;4.820;2024-01-11T14:53:42;5.40;77.90
14142;DHT22;7151;52.246;4.820;2024-01-11T14:56:08;5.40;77.90
14142;DHT22;7151;52.246;4.820;2024-01-11T14:58:34;5.40;77.90
14142;DHT22;7151;52.246;4.820;2024-01-11T15:00:59;5.40;78.70
14142;DHT22;7151;52.246;4.820;2024-01-11T15:03:25;5.40;78.10
14142;DHT22;7151;52.246;4.820;2024-01-11T15:05:53;5.40;78.10
14142;DHT22;7151;52.246;4.820;2024-01-11T15:08:19;5.40;78.20
14142;DHT22;7151;52.246;4.820;2024-01-11T15:10:46;5.50;78.20
14142;DHT22;7151;52.246;4.820;2024-01-11T15:13:12;5.50;78.40
14142;DHT22;7151;52.246;4.820;2024-01-11T15:15:37;5.50;78.40
14142;DHT22;7151;52.246;4.820;2024-01-11T15:18:04;5.50;78.40
14142;DHT22;7151;52.246;4.820;2024-01-11T15:20:29;5.50;78.50
14142;DHT22;7151;52.246;4.820;2024-01-11T15:22:55;5.40;78.50
14142;DHT22;7151;52.246;4.820;2024-01-11T15:25:22;5.50;78.60
14142;DHT22;7151;52.246;4.820;2024-01-11T15:27:49;5.50;78.60
14142;DHT22;7151;52.246;4.820;2024-01-11T15:30:15;5.50;78.70
14142;DHT22;7151;52.246;4.820;2024-01-11T15:32:41;5.50;78.70
14142;DHT22;7151;52.246;4.820;2024-01-11T15:35:07;5.50;78.80
14142;DHT22;7151;52.246;4.820;2024-01-11T15:37:36;5.50;78.80
14142;DHT22;7151;52.246;4.820;2024-01-11T15:40:02;5.50;78.90
14142;DHT22;7151;52.246;4.820;2024-01-11T15:42:30;5.50;79.00
14142;DHT22;7151;52.246;4.820;2024-01-11T15:44:56;5.50;79.00
14142;DHT22;7151;52.246;4.820;2024-01-11T15:47:21;5.60;79.20
14142;DHT22;7151;52.246;4.820;2024-01-11T15:49:47;5.60;79.20
14142;DHT22;7151;52.246;4.820;2024-01-11T15:52:12;5.60;79.30
14142;DHT22;7151;52.246;4.820;2024-01-11T15:54:38;5.60;79.30
14142;DHT22;7151;52.246;4.820;2024-01-11T15:57:04;5.50;79.40